sensor_id;sensor_type;location;lat;lon;timestamp;pressure;altitude;pressure_sealevel;temperature;humidity
23164;BME280;31429;42.674;23.350;2023-09-19T00:17:11;95147.31;;;21.81;100.00
23164;BME280;31429;42.674;23.350;2023-09-19T00:19:12;95155.22;;;22.25;100.00
23164;BME280;31429;42.674;23.350;2023-09-19T00:21:38;95150.94;;;22.46;100.00
23164;BME280;31429;42.674;23.350;2023-09-19T00:23:07;95153.06;;;22.63;100.00
23164;BME280;31429;42.674;23.350;2023-09-19T00:24:35;95140.97;;;22.62;97.62
23164;BME280;31429;42.674;23.350;2023-09-19T00:29:30;95149.97;;;22.14;100.00
23164;BME280;31429;42.674;23.350;2023-09-19T00:30:32;95147.88;;;22.30;95.49
23164;BME280;31429;42.674;23.350;2023-09-19T00:31:33;95145.97;;;22.10;90.84
23164;BME280;31429;42.674;23.350;2023-09-19T00:32:35;95151.28;;;21.97;97.77
23164;BME280;31429;42.674;23.350;2023-09-19T00:33:38;95146.31;;;22.05;95.98
23164;BME280;31429;42.674;23.350;2023-09-19T00:34:38;95156.22;;;21.89;100.00
23164;BME280;31429;42.674;23.350;2023-09-19T00:35:47;95147.97;;;22.17;99.32
23164;BME280;31429;42.674;23.350;2023-09-19T00:36:50;95146.91;;;22.31;98.67
23164;BME280;31429;42.674;23.350;2023-09-19T00:37:55;95139.56;;;22.14;97.70
23164;BME280;31429;42.674;23.350;2023-09-19T00:38:56;95141.13;;;22.27;97.37
23164;BME280;31429;42.674;23.350;2023-09-19T00:39:58;95140.16;;;22.62;95.74
23164;BME280;31429;42.674;23.350;2023-09-19T00:40:58;95142.06;;;22.38;93.68
23164;BME280;31429;42.674;23.350;2023-09-19T00:42:00;95138.03;;;22.45;96.70
23164;BME280;31429;42.674;23.350;2023-09-19T00:43:05;95141.84;;;22.18;92.20
23164;BME280;31429;42.674;23.350;2023-09-19T00:44:06;95142.66;;;22.30;96.46
23164;BME280;31429;42.674;23.350;2023-09-19T00:45:08;95135.56;;;22.32;95.72
23164;BME280;31429;42.674;23.350;2023-09-19T00:46:12;95137.44;;;22.52;94.51
23164;BME280;31429;42.674;23.350;2023-09-19T00:47:13;95136.28;;;22.67;92.57
23164;BME280;31429;42.674;23.350;2023-09-19T00:48:20;95123.69;;;22.61;91.41
23164;BME280;31429;42.674;23.350;2023-09-19T00:49:22;95133.97;;;22.63;92.33
23164;BME280;31429;42.674;23.350;2023-09-19T00:50:24;95119.28;;;22.51;93.40
23164;BME280;31429;42.674;23.350;2023-09-19T00:51:27;95130.09;;;22.35;93.62
23164;BME280;31429;42.674;23.350;2023-09-19T00:52:28;95136.16;;;22.36;95.89
23164;BME280;31429;42.674;23.350;2023-09-19T00:53:31;95134.00;;;22.29;93.07
23164;BME280;31429;42.674;23.350;2023-09-19T00:54:34;95137.31;;;22.31;91.47
23164;BME280;31429;42.674;23.350;2023-09-19T00:55:36;95138.03;;;22.00;95.08
23164;BME280;31429;42.674;23.350;2023-09-19T00:56:43;95139.00;;;22.10;97.03
23164;BME280;31429;42.674;23.350;2023-09-19T00:57:43;95130.22;;;22.22;93.43
23164;BME280;31429;42.674;23.350;2023-09-19T00:58:44;95133.22;;;21.83;99.75
23164;BME280;31429;42.674;23.350;2023-09-19T00:59:47;95138.88;;;21.66;97.24
23164;BME280;31429;42.674;23.350;2023-09-19T01:00:49;95130.94;;;22.13;97.66
23164;BME280;31429;42.674;23.350;2023-09-19T01:01:52;95142.75;;;22.17;97.15
23164;BME280;31429;42.674;23.350;2023-09-19T01:02:54;95137.31;;;22.20;95.75
23164;BME280;31429;42.674;23.350;2023-09-19T01:03:57;95136.03;;;22.15;95.84
23164;BME280;31429;42.674;23.350;2023-09-19T01:04:58;95131.50;;;22.17;93.74
23164;BME280;31429;42.674;23.350;2023-09-19T01:06:00;95130.81;;;22.04;97.54
23164;BME280;31429;42.674;23.350;2023-09-19T01:07:01;95132.72;;;22.35;94.85
23164;BME280;31429;42.674;23.350;2023-09-19T01:08:02;95135.41;;;22.00;94.63
23164;BME280;31429;42.674;23.350;2023-09-19T01:09:03;95139.84;;;21.65;95.99
23164;BME280;31429;42.674;23.350;2023-09-19T01:10:06;95134.56;;;21.89;98.92
23164;BME280;31429;42.674;23.350;2023-09-19T01:11:14;95136.16;;;21.56;100.00
23164;BME280;31429;42.674;23.350;2023-09-19T01:12:26;95135.31;;;21.21;100.00
23164;BME280;31429;42.674;23.350;2023-09-19T01:13:34;95137.53;;;21.14;100.00
23164;BME280;31429;42.674;23.350;2023-09-19T01:14:43;95137.94;;;21.32;100.00
23164;BME280;31429;42.674;23.350;2023-09-19T01:15:49;95133.31;;;21.25;100.00
23164;BME280;31429;42.674;23.350;2023-09-19T01:16:58;95139.91;;;21.52;100.00
23164;BME280;31429;42.674;23.350;2023-09-19T01:18:07;95131.06;;;21.66;100.00
23164;BME280;31429;42.674;23.350;2023-09-19T01:19:30;95134.56;;;21.89;99.09
23164;BME280;31429;42.674;23.350;2023-09-19T01:20:39;95130.09;;;22.02;97.72
23164;BME280;31429;42.674;23.350;2023-09-19T01:21:48;95133.28;;;21.94;99.42
23164;BME280;31429;42.674;23.350;2023-09-19T01:23:00;95134.50;;;22.23;96.28
23164;BME280;31429;42.674;23.350;2023-09-19T01:24:27;95138.31;;;21.62;100.00
23164;BME280;31429;42.674;23.350;2023-09-19T01:30:08;95134.38;;;21.57;100.00
23164;BME280;31429;42.674;23.350;2023-09-19T01:31:11;95142.91;;;22.05;97.29
23164;BME280;31429;42.674;23.350;2023-09-19T01:32:16;95146.22;;;21.61;97.15
23164;BME280;31429;42.674;23.350;2023-09-19T01:33:17;95145.31;;;21.38;100.00
23164;BME280;31429;42.674;23.350;2023-09-19T01:34:18;95135.75;;;21.39;100.00
23164;BME280;31429;42.674;23.350;2023-09-19T01:35:19;95141.66;;;21.41;99.91
23164;BME280;31429;42.674;23.350;2023-09-19T01:36:20;95135.22;;;21.23;100.00
23164;BME280;31429;42.674;23.350;2023-09-19T01:37:22;95136.19;;;21.33;100.00
23164;BME280;31429;42.674;23.350;2023-09-19T01:38:27;95134.41;;;21.68;100.00
23164;BME280;31429;42.674;23.350;2023-09-19T01:40:10;95127.91;;;21.73;99.86
23164;BME280;31429;42.674;23.350;2023-09-19T01:45:37;95121.94;;;21.60;98.84
23164;BME280;31429;42.674;23.350;2023-09-19T01:46:44;95108.84;;;21.62;100.00
23164;BME280;31429;42.674;23.350;2023-09-19T01:47:52;95120.31;;;21.59;100.00
23164;BME280;31429;42.674;23.350;2023-09-19T01:49:33;95114.72;;;21.88;97.75
23164;BME280;31429;42.674;23.350;2023-09-19T01:50:43;95110.75;;;21.71;97.23
23164;BME280;31429;42.674;23.350;2023-09-19T01:51:55;95121.91;;;21.38;98.86
23164;BME280;31429;42.674;23.350;2023-09-19T01:53:00;95119.31;;;21.49;100.00
23164;BME280;31429;42.674;23.350;2023-09-19T01:54:09;95113.00;;;21.75;97.89
23164;BME280;31429;42.674;23.350;2023-09-19T01:55:13;95126.66;;;21.90;97.86
23164;BME280;31429;42.674;23.350;2023-09-19T01:56:22;95126.88;;;21.41;100.00
23164;BME280;31429;42.674;23.350;2023-09-19T01:57:49;95115.84;;;21.38;98.70
23164;BME280;31429;42.674;23.350;2023-09-19T01:58:56;95127.75;;;21.64;100.00
23164;BME280;31429;42.674;23.350;2023-09-19T02:00:12;95125.22;;;21.51;100.00
23164;BME280;31429;42.674;23.350;2023-09-19T02:01:19;95122.72;;;21.85;98.23
23164;BME280;31429;42.674;23.350;2023-09-19T02:02:21;95134.28;;;21.81;97.34
23164;BME280;31429;42.674;23.350;2023-09-19T02:03:24;95143.53;;;21.85;97.23
23164;BME280;31429;42.674;23.350;2023-09-19T02:04:26;95139.19;;;21.85;97.07
23164;BME280;31429;42.674;23.350;2023-09-19T02:05:27;95143.53;;;21.73;98.41
23164;BME280;31429;42.674;23.350;2023-09-19T02:06:28;95143.03;;;21.68;98.10
23164;BME280;31429;42.674;23.350;2023-09-19T02:07:38;95145.22;;;21.16;100.00
23164;BME280;31429;42.674;23.350;2023-09-19T02:09:03;95132.56;;;21.11;100.00
23164;BME280;31429;42.674;23.350;2023-09-19T02:10:07;95134.16;;;21.25;100.00
23164;BME280;31429;42.674;23.350;2023-09-19T02:11:12;95137.41;;;21.40;100.00
23164;BME280;31429;42.674;23.350;2023-09-19T02:12:13;95134.41;;;21.33;100.00
23164;BME280;31429;42.674;23.350;2023-09-19T02:13:16;95125.28;;;21.62;100.00
23164;BME280;31429;42.674;23.350;2023-09-19T02:14:18;95135.34;;;21.67;98.61
23164;BME280;31429;42.674;23.350;2023-09-19T02:15:23;95128.56;;;21.53;96.09
23164;BME280;31429;42.674;23.350;2023-09-19T02:16:25;95124.00;;;21.33;100.00
23164;BME280;31429;42.674;23.350;2023-09-19T02:17:26;95125.69;;;21.34;100.00
23164;BME280;31429;42.674;23.350;2023-09-19T02:18:27;95128.56;;;21.53;100.00
23164;BME280;31429;42.674;23.350;2023-09-19T02:19:29;95139.47;;;21.69;97.53
23164;BME280;31429;42.674;23.350;2023-09-19T02:20:30;95137.34;;;21.74;97.48
23164;BME280;31429;42.674;23.350;2023-09-19T02:21:33;95142.28;;;21.55;100.00
23164;BME280;31429;42.674;23.350;2023-09-19T02:22:37;95127.91;;;21.73;99.17
23164;BME280;31429;42.674;23.350;2023-09-19T02:23:41;95125.22;;;21.40;99.59
23164;BME280;31429;42.674;23.350;2023-09-19T02:24:42;95124.91;;;21.21;100.00
23164;BME280;31429;42.674;23.350;2023-09-19T02:25:43;95135.97;;;21.12;100.00
23164;BME280;31429;42.674;23.350;2023-09-19T02:26:51;95128.41;;;21.44;100.00
23164;BME280;31429;42.674;23.350;2023-09-19T02:27:52;95138.78;;;21.67;100.00
23164;BME280;31429;42.674;23.350;2023-09-19T02:28:54;95129.19;;;21.57;100.00
23164;BME280;31429;42.674;23.350;2023-09-19T02:29:55;95133.78;;;21.53;100.00
23164;BME280;31429;42.674;23.350;2023-09-19T02:30:56;95135.59;;;21.40;100.00
23164;BME280;31429;42.674;23.350;2023-09-19T02:31:59;95127.56;;;21.78;98.60
23164;BME280;31429;42.674;23.350;2023-09-19T02:40:34;95104.00;;;20.99;100.00
23164;BME280;31429;42.674;23.350;2023-09-19T02:41:36;95111.31;;;20.94;100.00
23164;BME280;31429;42.674;23.350;2023-09-19T02:42:37;95109.53;;;20.94;100.00
23164;BME280;31429;42.674;23.350;2023-09-19T02:43:37;95103.72;;;20.91;100.00
23164;BME280;31429;42.674;23.350;2023-09-19T02:44:39;95095.75;;;21.05;100.00
23164;BME280;31429;42.674;23.350;2023-09-19T02:45:40;95099.19;;;21.40;100.00
23164;BME280;31429;42.674;23.350;2023-09-19T02:46:42;95091.59;;;21.26;100.00
23164;BME280;31429;42.674;23.350;2023-09-19T02:47:44;95101.41;;;20.99;100.00
23164;BME280;31429;42.674;23.350;2023-09-19T02:48:45;95104.00;;;21.23;100.00
23164;BME280;31429;42.674;23.350;2023-09-19T02:49:46;95099.09;;;21.42;100.00
23164;BME280;31429;42.674;23.350;2023-09-19T02:50:49;95096.03;;;21.48;100.00
23164;BME280;31429;42.674;23.350;2023-09-19T02:51:50;95104.69;;;21.48;100.00
23164;BME280;31429;42.674;23.350;2023-09-19T02:52:52;95102.03;;;21.37;100.00
23164;BME280;31429;42.674;23.350;2023-09-19T02:53:53;95097.63;;;21.03;100.00
23164;BME280;31429;42.674;23.350;2023-09-19T02:54:55;95103.41;;;21.19;100.00
23164;BME280;31429;42.674;23.350;2023-09-19T02:55:56;95101.06;;;21.27;100.00
23164;BME280;31429;42.674;23.350;2023-09-19T02:56:57;95094.88;;;21.63;100.00
23164;BME280;31429;42.674;23.350;2023-09-19T02:57:59;95087.63;;;20.86;100.00
23164;BME280;31429;42.674;23.350;2023-09-19T02:59:08;95093.22;;;20.20;100.00
23164;BME280;31429;42.674;23.350;2023-09-19T03:00:12;95093.19;;;20.45;100.00
23164;BME280;31429;42.674;23.350;2023-09-19T03:01:15;95099.31;;;20.44;100.00
23164;BME280;31429;42.674;23.350;2023-09-19T03:02:16;95091.59;;;20.55;100.00
23164;BME280;31429;42.674;23.350;2023-09-19T03:03:19;95089.31;;;20.63;100.00
23164;BME280;31429;42.674;23.350;2023-09-19T03:04:20;95084.47;;;20.46;100.00
23164;BME280;31429;42.674;23.350;2023-09-19T03:05:22;95092.59;;;21.12;100.00
23164;BME280;31429;42.674;23.350;2023-09-19T03:12:46;95087.13;;;20.57;100.00
23164;BME280;31429;42.674;23.350;2023-09-19T03:13:52;95078.41;;;20.82;100.00
23164;BME280;31429;42.674;23.350;2023-09-19T03:14:53;95091.63;;;21.37;100.00
23164;BME280;31429;42.674;23.350;2023-09-19T03:15:54;95086.91;;;21.42;100.00
23164;BME280;31429;42.674;23.350;2023-09-19T03:16:57;95098.31;;;20.94;100.00
23164;BME280;31429;42.674;23.350;2023-09-19T03:17:58;95087.31;;;20.18;100.00
23164;BME280;31429;42.674;23.350;2023-09-19T03:19:23;95080.63;;;19.52;100.00
23164;BME280;31429;42.674;23.350;2023-09-19T03:20:24;95086.09;;;19.47;100.00
23164;BME280;31429;42.674;23.350;2023-09-19T03:21:26;95080.59;;;19.90;100.00
23164;BME280;31429;42.674;23.350;2023-09-19T03:22:28;95079.44;;;20.06;100.00
23164;BME280;31429;42.674;23.350;2023-09-19T03:23:29;95086.41;;;19.93;100.00
23164;BME280;31429;42.674;23.350;2023-09-19T03:24:31;95075.53;;;19.50;100.00
23164;BME280;31429;42.674;23.350;2023-09-19T03:25:52;95078.31;;;19.35;100.00
23164;BME280;31429;42.674;23.350;2023-09-19T03:26:56;95071.78;;;19.80;100.00
23164;BME280;31429;42.674;23.350;2023-09-19T03:27:58;95072.34;;;20.34;100.00
23164;BME280;31429;42.674;23.350;2023-09-19T03:28:59;95074.06;;;20.70;100.00
23164;BME280;31429;42.674;23.350;2023-09-19T03:30:01;95076.22;;;20.52;100.00
23164;BME280;31429;42.674;23.350;2023-09-19T03:31:07;95086.03;;;20.48;100.00
23164;BME280;31429;42.674;23.350;2023-09-19T03:32:18;95083.03;;;20.29;100.00
23164;BME280;31429;42.674;23.350;2023-09-19T03:33:38;95075.72;;;19.85;100.00
23164;BME280;31429;42.674;23.350;2023-09-19T03:34:41;95081.56;;;19.76;100.00
23164;BME280;31429;42.674;23.350;2023-09-19T03:35:52;95090.06;;;19.78;100.00
23164;BME280;31429;42.674;23.350;2023-09-19T03:36:57;95079.03;;;20.00;100.00
23164;BME280;31429;42.674;23.350;2023-09-19T03:37:58;95088.16;;;19.93;100.00
23164;BME280;31429;42.674;23.350;2023-09-19T03:38:59;95091.00;;;19.65;100.00
23164;BME280;31429;42.674;23.350;2023-09-19T03:40:00;95083.00;;;19.80;100.00
23164;BME280;31429;42.674;23.350;2023-09-19T03:41:05;95092.53;;;20.54;100.00
23164;BME280;31429;42.674;23.350;2023-09-19T03:42:06;95083.19;;;20.99;100.00
23164;BME280;31429;42.674;23.350;2023-09-19T03:43:07;95091.13;;;21.32;100.00
23164;BME280;31429;42.674;23.350;2023-09-19T03:44:08;95090.81;;;21.37;100.00
23164;BME280;31429;42.674;23.350;2023-09-19T03:45:10;95097.59;;;21.61;100.00
23164;BME280;31429;42.674;23.350;2023-09-19T03:46:14;95095.03;;;21.84;98.18
23164;BME280;31429;42.674;23.350;2023-09-19T03:47:15;95097.31;;;21.99;95.95
23164;BME280;31429;42.674;23.350;2023-09-19T03:48:17;95095.06;;;21.95;95.54
23164;BME280;31429;42.674;23.350;2023-09-19T03:49:17;95100.81;;;21.76;95.81
23164;BME280;31429;42.674;23.350;2023-09-19T03:50:21;95099.97;;;21.64;96.85
23164;BME280;31429;42.674;23.350;2023-09-19T03:51:21;95098.22;;;21.30;98.44
23164;BME280;31429;42.674;23.350;2023-09-19T03:52:22;95103.06;;;21.35;100.00
23164;BME280;31429;42.674;23.350;2023-09-19T03:53:23;95103.63;;;21.51;99.49
23164;BME280;31429;42.674;23.350;2023-09-19T03:54:24;95107.56;;;21.78;96.94
23164;BME280;31429;42.674;23.350;2023-09-19T03:55:24;95108.44;;;21.90;95.67
23164;BME280;31429;42.674;23.350;2023-09-19T03:56:25;95103.56;;;21.97;94.76
23164;BME280;31429;42.674;23.350;2023-09-19T03:57:26;95109.28;;;22.02;94.78
23164;BME280;31429;42.674;23.350;2023-09-19T03:58:27;95099.53;;;21.82;93.82
23164;BME280;31429;42.674;23.350;2023-09-19T03:59:28;95097.38;;;21.75;95.89
23164;BME280;31429;42.674;23.350;2023-09-19T04:00:30;95110.91;;;21.92;95.40
23164;BME280;31429;42.674;23.350;2023-09-19T04:01:31;95110.44;;;21.98;94.42
23164;BME280;31429;42.674;23.350;2023-09-19T04:02:34;95115.41;;;22.12;93.02
23164;BME280;31429;42.674;23.350;2023-09-19T04:03:35;95111.16;;;22.00;92.91
23164;BME280;31429;42.674;23.350;2023-09-19T04:04:56;95103.88;;;21.24;97.39
23164;BME280;31429;42.674;23.350;2023-09-19T04:05:58;95109.03;;;20.17;100.00
23164;BME280;31429;42.674;23.350;2023-09-19T04:07:01;95105.00;;;20.25;100.00
23164;BME280;31429;42.674;23.350;2023-09-19T04:08:16;95113.00;;;20.58;100.00
23164;BME280;31429;42.674;23.350;2023-09-19T04:09:17;95112.78;;;20.85;100.00
23164;BME280;31429;42.674;23.350;2023-09-19T04:10:18;95108.75;;;21.05;100.00
23164;BME280;31429;42.674;23.350;2023-09-19T04:11:21;95110.84;;;21.24;100.00
23164;BME280;31429;42.674;23.350;2023-09-19T04:12:22;95113.03;;;21.41;99.68
23164;BME280;31429;42.674;23.350;2023-09-19T04:13:23;95112.31;;;20.19;100.00
23164;BME280;31429;42.674;23.350;2023-09-19T04:14:24;95112.28;;;20.56;100.00
23164;BME280;31429;42.674;23.350;2023-09-19T04:15:25;95112.31;;;20.44;100.00
23164;BME280;31429;42.674;23.350;2023-09-19T04:16:25;95120.81;;;20.82;100.00
23164;BME280;31429;42.674;23.350;2023-09-19T04:17:27;95114.06;;;21.27;100.00
23164;BME280;31429;42.674;23.350;2023-09-19T04:22:23;95125.66;;;21.80;95.90
23164;BME280;31429;42.674;23.350;2023-09-19T04:23:24;95131.75;;;21.92;95.02
23164;BME280;31429;42.674;23.350;2023-09-19T04:24:25;95127.59;;;21.43;97.38
23164;BME280;31429;42.674;23.350;2023-09-19T04:25:26;95126.72;;;20.84;100.00
23164;BME280;31429;42.674;23.350;2023-09-19T04:26:29;95116.13;;;19.89;100.00
23164;BME280;31429;42.674;23.350;2023-09-19T04:27:29;95131.22;;;19.45;100.00
23164;BME280;31429;42.674;23.350;2023-09-19T04:28:32;95123.13;;;19.10;100.00
23164;BME280;31429;42.674;23.350;2023-09-19T04:29:34;95113.59;;;18.71;100.00
23164;BME280;31429;42.674;23.350;2023-09-19T04:30:36;95103.34;;;19.09;100.00
23164;BME280;31429;42.674;23.350;2023-09-19T04:31:37;95105.06;;;19.35;100.00
23164;BME280;31429;42.674;23.350;2023-09-19T04:32:39;95102.81;;;19.43;100.00
23164;BME280;31429;42.674;23.350;2023-09-19T04:33:40;95102.69;;;19.32;100.00
23164;BME280;31429;42.674;23.350;2023-09-19T04:40:33;95101.19;;;21.26;100.00
23164;BME280;31429;42.674;23.350;2023-09-19T04:41:34;95108.88;;;21.38;100.00
23164;BME280;31429;42.674;23.350;2023-09-19T04:42:35;95109.47;;;21.07;100.00
23164;BME280;31429;42.674;23.350;2023-09-19T04:43:36;95112.22;;;20.45;100.00
23164;BME280;31429;42.674;23.350;2023-09-19T04:44:38;95109.28;;;19.63;100.00
23164;BME280;31429;42.674;23.350;2023-09-19T04:45:40;95105.69;;;19.39;100.00
23164;BME280;31429;42.674;23.350;2023-09-19T04:46:41;95105.56;;;19.28;100.00
23164;BME280;31429;42.674;23.350;2023-09-19T04:47:42;95099.47;;;20.17;100.00
23164;BME280;31429;42.674;23.350;2023-09-19T04:48:44;95097.16;;;20.13;100.00
23164;BME280;31429;42.674;23.350;2023-09-19T04:49:45;95104.09;;;19.63;100.00
23164;BME280;31429;42.674;23.350;2023-09-19T04:50:48;95097.94;;;19.64;100.00
23164;BME280;31429;42.674;23.350;2023-09-19T04:51:51;95109.34;;;19.87;100.00
23164;BME280;31429;42.674;23.350;2023-09-19T04:52:52;95107.25;;;19.41;100.00
23164;BME280;31429;42.674;23.350;2023-09-19T04:53:54;95107.28;;;19.79;100.00
23164;BME280;31429;42.674;23.350;2023-09-19T04:54:56;95104.38;;;19.46;100.00
23164;BME280;31429;42.674;23.350;2023-09-19T04:56:09;95101.38;;;19.65;100.00
23164;BME280;31429;42.674;23.350;2023-09-19T04:57:11;95102.31;;;19.76;100.00
23164;BME280;31429;42.674;23.350;2023-09-19T04:58:13;95104.78;;;20.03;100.00
23164;BME280;31429;42.674;23.350;2023-09-19T04:59:26;95095.16;;;20.41;100.00
23164;BME280;31429;42.674;23.350;2023-09-19T05:00:28;95105.31;;;20.81;100.00
23164;BME280;31429;42.674;23.350;2023-09-19T05:01:31;95096.84;;;20.90;100.00
23164;BME280;31429;42.674;23.350;2023-09-19T05:02:55;95093.31;;;20.91;100.00
23164;BME280;31429;42.674;23.350;2023-09-19T05:04:00;95093.94;;;20.94;100.00
23164;BME280;31429;42.674;23.350;2023-09-19T05:05:01;95099.22;;;20.93;100.00
23164;BME280;31429;42.674;23.350;2023-09-19T05:06:03;95096.78;;;21.26;100.00
23164;BME280;31429;42.674;23.350;2023-09-19T05:07:05;95095.84;;;21.27;100.00
23164;BME280;31429;42.674;23.350;2023-09-19T05:08:06;95096.59;;;21.40;100.00
23164;BME280;31429;42.674;23.350;2023-09-19T05:09:09;95086.09;;;21.42;100.00
23164;BME280;31429;42.674;23.350;2023-09-19T05:10:10;95090.63;;;21.62;99.03
23164;BME280;31429;42.674;23.350;2023-09-19T05:11:15;95086.97;;;21.18;98.73
23164;BME280;31429;42.674;23.350;2023-09-19T05:12:16;95089.91;;;21.14;100.00
23164;BME280;31429;42.674;23.350;2023-09-19T05:13:20;95085.16;;;21.08;100.00
23164;BME280;31429;42.674;23.350;2023-09-19T05:14:21;95098.19;;;20.35;100.00
23164;BME280;31429;42.674;23.350;2023-09-19T05:15:23;95095.53;;;19.99;100.00
23164;BME280;31429;42.674;23.350;2023-09-19T05:16:24;95101.38;;;20.51;100.00
23164;BME280;31429;42.674;23.350;2023-09-19T05:17:25;95092.47;;;20.67;100.00
23164;BME280;31429;42.674;23.350;2023-09-19T05:18:27;95104.19;;;20.72;100.00
23164;BME280;31429;42.674;23.350;2023-09-19T05:19:28;95098.53;;;20.91;100.00
23164;BME280;31429;42.674;23.350;2023-09-19T05:20:29;95094.22;;;21.37;100.00
23164;BME280;31429;42.674;23.350;2023-09-19T05:21:34;95087.38;;;21.36;100.00
23164;BME280;31429;42.674;23.350;2023-09-19T05:22:59;95098.19;;;21.54;100.00
23164;BME280;31429;42.674;23.350;2023-09-19T05:24:02;95095.09;;;21.60;97.04
23164;BME280;31429;42.674;23.350;2023-09-19T05:25:04;95090.03;;;21.58;96.40
23164;BME280;31429;42.674;23.350;2023-09-19T05:26:05;95085.69;;;21.81;96.45
23164;BME280;31429;42.674;23.350;2023-09-19T05:27:07;95087.72;;;21.89;95.43
23164;BME280;31429;42.674;23.350;2023-09-19T05:28:09;95086.59;;;21.80;92.90
23164;BME280;31429;42.674;23.350;2023-09-19T05:29:10;95096.97;;;21.47;93.50
23164;BME280;31429;42.674;23.350;2023-09-19T05:30:13;95087.88;;;21.52;95.12
23164;BME280;31429;42.674;23.350;2023-09-19T05:31:15;95089.88;;;21.49;97.73
23164;BME280;31429;42.674;23.350;2023-09-19T05:32:17;95098.00;;;21.79;96.50
23164;BME280;31429;42.674;23.350;2023-09-19T05:33:20;95088.38;;;21.68;92.66
23164;BME280;31429;42.674;23.350;2023-09-19T05:34:21;95087.50;;;21.46;97.29
23164;BME280;31429;42.674;23.350;2023-09-19T05:47:50;95075.19;;;22.05;90.37
23164;BME280;31429;42.674;23.350;2023-09-19T05:49:16;95077.16;;;22.34;90.29
23164;BME280;31429;42.674;23.350;2023-09-19T05:52:30;95080.38;;;22.27;90.73
23164;BME280;31429;42.674;23.350;2023-09-19T05:53:53;95079.88;;;22.44;89.82
23164;BME280;31429;42.674;23.350;2023-09-19T05:55:14;95070.38;;;22.54;88.16
23164;BME280;31429;42.674;23.350;2023-09-19T06:07:58;95067.19;;;22.51;89.14
23164;BME280;31429;42.674;23.350;2023-09-19T06:09:00;95071.81;;;22.58;88.84
23164;BME280;31429;42.674;23.350;2023-09-19T06:10:08;95071.56;;;22.72;87.83
23164;BME280;31429;42.674;23.350;2023-09-19T06:11:10;95065.16;;;22.54;88.48
23164;BME280;31429;42.674;23.350;2023-09-19T06:12:12;95060.91;;;22.64;87.46
23164;BME280;31429;42.674;23.350;2023-09-19T06:13:22;95065.91;;;22.88;86.64
23164;BME280;31429;42.674;23.350;2023-09-19T06:14:25;95059.50;;;22.92;86.04
23164;BME280;31429;42.674;23.350;2023-09-19T06:15:28;95073.31;;;22.61;86.23
23164;BME280;31429;42.674;23.350;2023-09-19T06:16:29;95069.66;;;22.63;87.90
23164;BME280;31429;42.674;23.350;2023-09-19T06:25:40;95054.88;;;22.64;87.90
23164;BME280;31429;42.674;23.350;2023-09-19T06:26:45;95057.47;;;22.64;85.92
23164;BME280;31429;42.674;23.350;2023-09-19T06:28:14;95056.09;;;22.26;88.80
23164;BME280;31429;42.674;23.350;2023-09-19T06:29:45;95056.72;;;22.08;91.55
23164;BME280;31429;42.674;23.350;2023-09-19T06:31:28;95061.97;;;22.62;88.35
23164;BME280;31429;42.674;23.350;2023-09-19T06:32:57;95055.06;;;22.07;89.33
23164;BME280;31429;42.674;23.350;2023-09-19T06:35:07;95059.66;;;20.29;100.00
23164;BME280;31429;42.674;23.350;2023-09-19T07:55:21;95081.50;;;21.10;98.12
23164;BME280;31429;42.674;23.350;2023-09-19T08:06:52;95091.75;;;21.93;94.48
23164;BME280;31429;42.674;23.350;2023-09-19T08:07:53;95081.56;;;22.23;94.86
23164;BME280;31429;42.674;23.350;2023-09-19T08:08:57;95080.38;;;22.27;99.19
23164;BME280;31429;42.674;23.350;2023-09-19T08:11:52;95056.66;;;22.95;88.65
23164;BME280;31429;42.674;23.350;2023-09-19T08:12:52;95056.63;;;23.06;87.73
23164;BME280;31429;42.674;23.350;2023-09-19T08:13:58;95062.22;;;23.22;86.19
23164;BME280;31429;42.674;23.350;2023-09-19T08:15:05;95045.81;;;23.31;85.14
23164;BME280;31429;42.674;23.350;2023-09-19T08:17:46;95052.78;;;23.42;84.49
23164;BME280;31429;42.674;23.350;2023-09-19T08:19:04;95062.00;;;23.46;84.14
23164;BME280;31429;42.674;23.350;2023-09-19T08:20:29;95057.66;;;23.35;84.74
23164;BME280;31429;42.674;23.350;2023-09-19T08:21:30;95055.84;;;23.47;83.88
23164;BME280;31429;42.674;23.350;2023-09-19T08:22:31;95059.59;;;23.54;83.75
23164;BME280;31429;42.674;23.350;2023-09-19T08:23:55;95050.38;;;22.98;84.93
23164;BME280;31429;42.674;23.350;2023-09-19T08:24:57;95046.22;;;22.95;87.90
23164;BME280;31429;42.674;23.350;2023-09-19T08:25:58;95041.03;;;23.16;86.78
23164;BME280;31429;42.674;23.350;2023-09-19T08:27:08;95042.59;;;23.39;85.30
23164;BME280;31429;42.674;23.350;2023-09-19T08:28:10;95050.81;;;23.55;84.31
23164;BME280;31429;42.674;23.350;2023-09-19T08:29:13;95041.31;;;23.54;82.79
23164;BME280;31429;42.674;23.350;2023-09-19T08:30:14;95039.91;;;23.50;82.89
23164;BME280;31429;42.674;23.350;2023-09-19T08:31:18;95038.09;;;23.41;83.51
23164;BME280;31429;42.674;23.350;2023-09-19T08:32:19;95038.72;;;23.02;85.11
23164;BME280;31429;42.674;23.350;2023-09-19T08:33:24;95042.75;;;23.26;85.66
23164;BME280;31429;42.674;23.350;2023-09-19T08:34:25;95047.00;;;23.38;83.68
23164;BME280;31429;42.674;23.350;2023-09-19T08:35:27;95046.34;;;23.46;84.72
23164;BME280;31429;42.674;23.350;2023-09-19T08:36:28;95055.69;;;23.49;82.79
23164;BME280;31429;42.674;23.350;2023-09-19T08:37:28;95059.25;;;23.27;83.66
23164;BME280;31429;42.674;23.350;2023-09-19T08:38:30;95049.78;;;22.94;84.81
23164;BME280;31429;42.674;23.350;2023-09-19T08:39:31;95055.81;;;22.95;85.67
23164;BME280;31429;42.674;23.350;2023-09-19T08:40:36;95056.41;;;23.19;87.05